sensor_id;sensor_type;location;lat;lon;timestamp;P1;durP1;ratioP1;P2;durP2;ratioP2
29422;SDS011;16399;51.686;8.684;2023-04-19T00:02:09;8.05;;;3.98;;
29422;SDS011;16399;51.686;8.684;2023-04-19T00:05:12;7.42;;;3.98;;
29422;SDS011;16399;51.686;8.684;2023-04-19T00:08:15;7.10;;;4.42;;
29422;SDS011;16399;51.686;8.684;2023-04-19T00:11:17;7.87;;;4.30;;
29422;SDS011;16399;51.686;8.684;2023-04-19T00:14:19;7.45;;;3.95;;
29422;SDS011;16399;51.686;8.684;2023-04-19T00:17:22;7.55;;;3.70;;
29422;SDS011;16399;51.686;8.684;2023-04-19T00:20:24;7.58;;;4.25;;
29422;SDS011;16399;51.686;8.684;2023-04-19T00:23:26;7.40;;;4.33;;
29422;SDS011;16399;51.686;8.684;2023-04-19T00:26:28;8.50;;;4.70;;
29422;SDS011;16399;51.686;8.684;2023-04-19T00:29:31;7.78;;;4.00;;
29422;SDS011;16399;51.686;8.684;2023-04-19T00:32:33;8.40;;;3.87;;
29422;SDS011;16399;51.686;8.684;2023-04-19T00:35:35;7.20;;;3.80;;
29422;SDS011;16399;51.686;8.684;2023-04-19T00:38:38;8.05;;;4.45;;
29422;SDS011;16399;51.686;8.684;2023-04-19T00:41:40;8.55;;;4.28;;
29422;SDS011;16399;51.686;8.684;2023-04-19T00:44:43;8.68;;;4.42;;
29422;SDS011;16399;51.686;8.684;2023-04-19T00:47:45;7.47;;;3.77;;
29422;SDS011;16399;51.686;8.684;2023-04-19T00:50:47;9.48;;;4.40;;
29422;SDS011;16399;51.686;8.684;2023-04-19T00:53:50;7.20;;;4.30;;
29422;SDS011;16399;51.686;8.684;2023-04-19T00:56:53;7.78;;;4.33;;
29422;SDS011;16399;51.686;8.684;2023-04-19T00:59:56;8.60;;;4.28;;
29422;SDS011;16399;51.686;8.684;2023-04-19T01:02:58;7.22;;;3.98;;
29422;SDS011;16399;51.686;8.684;2023-04-19T01:06:01;6.03;;;3.60;;
29422;SDS011;16399;51.686;8.684;2023-04-19T01:09:03;6.72;;;3.95;;
29422;SDS011;16399;51.686;8.684;2023-04-19T01:12:05;8.28;;;4.67;;
29422;SDS011;16399;51.686;8.684;2023-04-19T01:15:08;8.43;;;3.98;;
29422;SDS011;16399;51.686;8.684;2023-04-19T01:18:10;8.25;;;3.75;;
29422;SDS011;16399;51.686;8.684;2023-04-19T01:21:13;8.98;;;4.20;;
29422;SDS011;16399;51.686;8.684;2023-04-19T01:24:16;8.78;;;3.70;;
29422;SDS011;16399;51.686;8.684;2023-04-19T01:27:19;7.83;;;4.00;;
29422;SDS011;16399;51.686;8.684;2023-04-19T01:30:21;6.55;;;3.75;;
29422;SDS011;16399;51.686;8.684;2023-04-19T01:33:23;6.70;;;3.77;;
29422;SDS011;16399;51.686;8.684;2023-04-19T01:36:26;9.55;;;4.50;;
29422;SDS011;16399;51.686;8.684;2023-04-19T01:39:28;8.35;;;3.85;;
29422;SDS011;16399;51.686;8.684;2023-04-19T01:42:31;8.00;;;4.10;;
29422;SDS011;16399;51.686;8.684;2023-04-19T01:45:33;6.58;;;3.70;;
29422;SDS011;16399;51.686;8.684;2023-04-19T01:48:36;8.53;;;4.42;;
29422;SDS011;16399;51.686;8.684;2023-04-19T01:51:38;10.43;;;4.33;;
29422;SDS011;16399;51.686;8.684;2023-04-19T01:54:41;7.78;;;4.60;;
29422;SDS011;16399;51.686;8.684;2023-04-19T01:57:43;7.30;;;4.03;;
29422;SDS011;16399;51.686;8.684;2023-04-19T02:00:46;9.93;;;4.25;;
29422;SDS011;16399;51.686;8.684;2023-04-19T02:03:48;7.12;;;4.22;;
29422;SDS011;16399;51.686;8.684;2023-04-19T02:06:50;6.50;;;3.80;;
29422;SDS011;16399;51.686;8.684;2023-04-19T02:09:52;7.05;;;3.92;;
29422;SDS011;16399;51.686;8.684;2023-04-19T02:12:55;9.15;;;4.17;;
29422;SDS011;16399;51.686;8.684;2023-04-19T02:15:57;7.08;;;4.17;;
29422;SDS011;16399;51.686;8.684;2023-04-19T02:19:01;8.70;;;4.13;;
29422;SDS011;16399;51.686;8.684;2023-04-19T02:22:04;7.15;;;4.17;;
29422;SDS011;16399;51.686;8.684;2023-04-19T02:25:06;7.33;;;4.20;;
29422;SDS011;16399;51.686;8.684;2023-04-19T02:28:08;6.22;;;4.05;;
29422;SDS011;16399;51.686;8.684;2023-04-19T02:31:11;6.37;;;3.95;;
29422;SDS011;16399;51.686;8.684;2023-04-19T02:34:14;7.00;;;4.00;;
29422;SDS011;16399;51.686;8.684;2023-04-19T02:37:16;7.90;;;4.53;;
29422;SDS011;16399;51.686;8.684;2023-04-19T02:40:18;9.55;;;5.15;;
29422;SDS011;16399;51.686;8.684;2023-04-19T02:43:22;8.85;;;4.20;;
29422;SDS011;16399;51.686;8.684;2023-04-19T02:46:24;8.40;;;4.28;;
29422;SDS011;16399;51.686;8.684;2023-04-19T02:49:26;7.75;;;4.50;;
29422;SDS011;16399;51.686;8.684;2023-04-19T02:52:32;8.08;;;4.40;;
29422;SDS011;16399;51.686;8.684;2023-04-19T02:55:35;7.40;;;4.20;;
29422;SDS011;16399;51.686;8.684;2023-04-19T02:58:37;9.03;;;4.92;;
29422;SDS011;16399;51.686;8.684;2023-04-19T03:01:39;8.25;;;4.65;;
29422;SDS011;16399;51.686;8.684;2023-04-19T03:04:42;7.95;;;4.90;;
29422;SDS011;16399;51.686;8.684;2023-04-19T03:07:44;8.08;;;4.65;;
29422;SDS011;16399;51.686;8.684;2023-04-19T03:10:46;9.85;;;4.85;;
29422;SDS011;16399;51.686;8.684;2023-04-19T03:13:49;7.87;;;4.78;;
29422;SDS011;16399;51.686;8.684;2023-04-19T03:16:51;11.15;;;5.08;;
29422;SDS011;16399;51.686;8.684;2023-04-19T03:19:53;8.08;;;4.67;;
29422;SDS011;16399;51.686;8.684;2023-04-19T03:22:56;8.73;;;4.80;;
29422;SDS011;16399;51.686;8.684;2023-04-19T03:25:58;8.88;;;5.00;;
29422;SDS011;16399;51.686;8.684;2023-04-19T03:29:00;8.48;;;4.67;;
29422;SDS011;16399;51.686;8.684;2023-04-19T03:32:03;8.45;;;4.53;;
29422;SDS011;16399;51.686;8.684;2023-04-19T03:35:05;9.20;;;4.65;;
29422;SDS011;16399;51.686;8.684;2023-04-19T03:38:08;9.15;;;5.03;;
29422;SDS011;16399;51.686;8.684;2023-04-19T03:41:23;9.18;;;4.30;;
29422;SDS011;16399;51.686;8.684;2023-04-19T03:44:26;9.00;;;4.70;;
29422;SDS011;16399;51.686;8.684;2023-04-19T03:47:28;8.58;;;4.60;;
29422;SDS011;16399;51.686;8.684;2023-04-19T03:50:30;9.60;;;4.97;;
29422;SDS011;16399;51.686;8.684;2023-04-19T03:53:32;11.38;;;4.60;;
29422;SDS011;16399;51.686;8.684;2023-04-19T03:56:35;7.95;;;4.15;;
29422;SDS011;16399;51.686;8.684;2023-04-19T03:59:37;9.43;;;4.58;;
29422;SDS011;16399;51.686;8.684;2023-04-19T04:02:40;11.18;;;4.83;;
29422;SDS011;16399;51.686;8.684;2023-04-19T04:05:42;12.90;;;4.83;;
29422;SDS011;16399;51.686;8.684;2023-04-19T04:08:44;10.30;;;4.55;;
29422;SDS011;16399;51.686;8.684;2023-04-19T04:11:47;8.83;;;4.35;;
29422;SDS011;16399;51.686;8.684;2023-04-19T04:14:49;9.28;;;4.10;;
29422;SDS011;16399;51.686;8.684;2023-04-19T04:17:51;11.08;;;4.22;;
29422;SDS011;16399;51.686;8.684;2023-04-19T04:20:54;8.88;;;4.22;;
29422;SDS011;16399;51.686;8.684;2023-04-19T04:23:56;10.90;;;4.17;;
29422;SDS011;16399;51.686;8.684;2023-04-19T04:27:00;7.50;;;4.00;;
29422;SDS011;16399;51.686;8.684;2023-04-19T04:30:02;15.75;;;4.42;;
29422;SDS011;16399;51.686;8.684;2023-04-19T04:33:06;13.05;;;4.42;;
29422;SDS011;16399;51.686;8.684;2023-04-19T04:36:10;8.63;;;4.25;;
29422;SDS011;16399;51.686;8.684;2023-04-19T04:39:13;9.33;;;3.50;;
29422;SDS011;16399;51.686;8.684;2023-04-19T04:42:15;8.38;;;4.25;;
29422;SDS011;16399;51.686;8.684;2023-04-19T04:45:17;8.15;;;4.05;;
29422;SDS011;16399;51.686;8.684;2023-04-19T04:48:20;8.78;;;3.98;;
29422;SDS011;16399;51.686;8.684;2023-04-19T04:51:22;10.43;;;4.25;;
29422;SDS011;16399;51.686;8.684;2023-04-19T04:54:24;10.10;;;3.30;;
29422;SDS011;16399;51.686;8.684;2023-04-19T04:57:26;8.18;;;3.45;;
29422;SDS011;16399;51.686;8.684;2023-04-19T05:00:29;9.35;;;3.85;;
29422;SDS011;16399;51.686;8.684;2023-04-19T05:03:31;12.37;;;3.00;;
29422;SDS011;16399;51.686;8.684;2023-04-19T05:06:34;6.25;;;2.92;;
29422;SDS011;16399;51.686;8.684;2023-04-19T05:09:36;14.90;;;2.65;;
29422;SDS011;16399;51.686;8.684;2023-04-19T05:12:38;6.35;;;2.72;;
29422;SDS011;16399;51.686;8.684;2023-04-19T05:15:41;5.22;;;2.77;;
29422;SDS011;16399;51.686;8.684;2023-04-19T05:18:43;11.12;;;3.52;;
29422;SDS011;16399;51.686;8.684;2023-04-19T05:21:46;8.33;;;3.35;;
29422;SDS011;16399;51.686;8.684;2023-04-19T05:24:48;8.90;;;3.52;;
29422;SDS011;16399;51.686;8.684;2023-04-19T05:27:51;8.13;;;3.70;;
29422;SDS011;16399;51.686;8.684;2023-04-19T05:30:53;8.75;;;3.52;;
29422;SDS011;16399;51.686;8.684;2023-04-19T05:33:56;6.90;;;2.85;;
29422;SDS011;16399;51.686;8.684;2023-04-19T05:36:58;7.10;;;3.15;;
29422;SDS011;16399;51.686;8.684;2023-04-19T05:40:01;7.35;;;3.20;;
29422;SDS011;16399;51.686;8.684;2023-04-19T05:43:08;9.38;;;3.40;;
29422;SDS011;16399;51.686;8.684;2023-04-19T05:46:10;7.65;;;2.70;;
29422;SDS011;16399;51.686;8.684;2023-04-19T05:49:13;7.78;;;3.37;;
29422;SDS011;16399;51.686;8.684;2023-04-19T05:52:15;6.00;;;2.75;;
29422;SDS011;16399;51.686;8.684;2023-04-19T05:55:17;5.75;;;3.02;;
29422;SDS011;16399;51.686;8.684;2023-04-19T05:58:20;9.13;;;2.62;;
29422;SDS011;16399;51.686;8.684;2023-04-19T06:01:22;6.75;;;2.70;;
29422;SDS011;16399;51.686;8.684;2023-04-19T06:04:25;6.62;;;3.35;;
29422;SDS011;16399;51.686;8.684;2023-04-19T06:07:28;9.03;;;3.15;;
29422;SDS011;16399;51.686;8.684;2023-04-19T06:10:30;5.80;;;2.50;;
29422;SDS011;16399;51.686;8.684;2023-04-19T06:13:33;10.55;;;2.92;;
29422;SDS011;16399;51.686;8.684;2023-04-19T06:16:35;8.03;;;2.52;;
29422;SDS011;16399;51.686;8.684;2023-04-19T06:19:37;8.45;;;3.00;;
29422;SDS011;16399;51.686;8.684;2023-04-19T06:22:41;8.08;;;2.35;;
29422;SDS011;16399;51.686;8.684;2023-04-19T06:25:46;4.92;;;2.40;;
29422;SDS011;16399;51.686;8.684;2023-04-19T06:28:48;8.20;;;2.65;;
29422;SDS011;16399;51.686;8.684;2023-04-19T06:31:51;6.62;;;2.20;;
29422;SDS011;16399;51.686;8.684;2023-04-19T06:34:53;7.15;;;2.45;;
29422;SDS011;16399;51.686;8.684;2023-04-19T06:37:55;9.50;;;2.40;;
29422;SDS011;16399;51.686;8.684;2023-04-19T06:40:59;7.58;;;2.55;;
29422;SDS011;16399;51.686;8.684;2023-04-19T06:44:01;5.72;;;2.42;;
29422;SDS011;16399;51.686;8.684;2023-04-19T06:47:03;9.90;;;2.62;;
29422;SDS011;16399;51.686;8.684;2023-04-19T06:50:06;6.20;;;2.08;;
29422;SDS011;16399;51.686;8.684;2023-04-19T06:53:10;6.67;;;2.65;;
29422;SDS011;16399;51.686;8.684;2023-04-19T06:56:12;7.80;;;3.00;;
29422;SDS011;16399;51.686;8.684;2023-04-19T06:59:15;6.17;;;2.52;;
29422;SDS011;16399;51.686;8.684;2023-04-19T07:02:18;7.07;;;2.30;;
29422;SDS011;16399;51.686;8.684;2023-04-19T07:05:20;5.70;;;2.42;;
29422;SDS011;16399;51.686;8.684;2023-04-19T07:08:23;6.40;;;2.35;;
29422;SDS011;16399;51.686;8.684;2023-04-19T07:11:26;6.25;;;2.40;;
29422;SDS011;16399;51.686;8.684;2023-04-19T07:14:28;7.45;;;2.75;;
29422;SDS011;16399;51.686;8.684;2023-04-19T07:17:30;8.73;;;2.58;;
29422;SDS011;16399;51.686;8.684;2023-04-19T07:20:34;6.70;;;2.70;;
29422;SDS011;16399;51.686;8.684;2023-04-19T07:23:36;7.15;;;2.42;;
29422;SDS011;16399;51.686;8.684;2023-04-19T07:26:39;5.78;;;2.50;;
29422;SDS011;16399;51.686;8.684;2023-04-19T07:29:41;6.85;;;2.75;;
29422;SDS011;16399;51.686;8.684;2023-04-19T07:32:43;4.60;;;2.05;;
29422;SDS011;16399;51.686;8.684;2023-04-19T07:35:46;6.47;;;2.67;;
29422;SDS011;16399;51.686;8.684;2023-04-19T07:38:48;6.47;;;2.25;;
29422;SDS011;16399;51.686;8.684;2023-04-19T07:41:50;7.40;;;2.30;;
29422;SDS011;16399;51.686;8.684;2023-04-19T07:44:53;7.05;;;2.40;;
29422;SDS011;16399;51.686;8.684;2023-04-19T07:47:55;7.33;;;2.10;;
29422;SDS011;16399;51.686;8.684;2023-04-19T07:51:06;7.25;;;3.08;;
29422;SDS011;16399;51.686;8.684;2023-04-19T07:54:12;7.70;;;2.63;;
29422;SDS011;16399;51.686;8.684;2023-04-19T07:57:15;3.80;;;2.02;;
29422;SDS011;16399;51.686;8.684;2023-04-19T08:00:18;6.37;;;2.52;;
29422;SDS011;16399;51.686;8.684;2023-04-19T08:03:22;5.08;;;2.08;;
29422;SDS011;16399;51.686;8.684;2023-04-19T08:06:24;6.08;;;2.58;;
29422;SDS011;16399;51.686;8.684;2023-04-19T08:09:27;7.17;;;2.60;;
29422;SDS011;16399;51.686;8.684;2023-04-19T08:12:29;4.37;;;2.40;;
29422;SDS011;16399;51.686;8.684;2023-04-19T08:15:32;7.72;;;2.40;;
29422;SDS011;16399;51.686;8.684;2023-04-19T08:18:35;5.53;;;2.37;;
29422;SDS011;16399;51.686;8.684;2023-04-19T08:21:37;4.12;;;1.95;;
29422;SDS011;16399;51.686;8.684;2023-04-19T08:24:39;5.53;;;2.33;;
29422;SDS011;16399;51.686;8.684;2023-04-19T08:27:42;4.72;;;2.20;;
29422;SDS011;16399;51.686;8.684;2023-04-19T08:30:44;5.17;;;2.52;;
29422;SDS011;16399;51.686;8.684;2023-04-19T08:33:46;6.75;;;2.33;;
29422;SDS011;16399;51.686;8.684;2023-04-19T08:36:49;6.60;;;2.25;;
29422;SDS011;16399;51.686;8.684;2023-04-19T08:39:51;6.00;;;2.30;;
29422;SDS011;16399;51.686;8.684;2023-04-19T08:42:54;6.33;;;2.40;;
29422;SDS011;16399;51.686;8.684;2023-04-19T08:45:58;6.72;;;2.20;;
29422;SDS011;16399;51.686;8.684;2023-04-19T08:49:00;4.67;;;1.92;;
29422;SDS011;16399;51.686;8.684;2023-04-19T08:52:05;7.70;;;2.72;;
29422;SDS011;16399;51.686;8.684;2023-04-19T08:55:09;5.12;;;2.17;;
29422;SDS011;16399;51.686;8.684;2023-04-19T08:58:11;6.85;;;2.30;;
29422;SDS011;16399;51.686;8.684;2023-04-19T09:01:14;6.80;;;2.00;;
29422;SDS011;16399;51.686;8.684;2023-04-19T09:04:16;4.83;;;2.10;;
29422;SDS011;16399;51.686;8.684;2023-04-19T09:07:22;5.40;;;1.95;;
29422;SDS011;16399;51.686;8.684;2023-04-19T09:10:25;4.60;;;1.92;;
29422;SDS011;16399;51.686;8.684;2023-04-19T09:13:27;4.08;;;2.10;;
29422;SDS011;16399;51.686;8.684;2023-04-19T09:16:30;8.80;;;2.35;;
29422;SDS011;16399;51.686;8.684;2023-04-19T09:19:43;6.20;;;2.47;;
29422;SDS011;16399;51.686;8.684;2023-04-19T09:23:01;10.23;;;2.40;;
29422;SDS011;16399;51.686;8.684;2023-04-19T09:25:57;5.22;;;2.08;;
29422;SDS011;16399;51.686;8.684;2023-04-19T09:29:01;4.10;;;2.10;;
29422;SDS011;16399;51.686;8.684;2023-04-19T09:32:07;6.53;;;2.30;;
29422;SDS011;16399;51.686;8.684;2023-04-19T09:35:09;4.70;;;2.27;;
29422;SDS011;16399;51.686;8.684;2023-04-19T09:38:11;5.50;;;2.05;;
29422;SDS011;16399;51.686;8.684;2023-04-19T09:41:15;9.18;;;3.27;;
29422;SDS011;16399;51.686;8.684;2023-04-19T09:44:17;4.05;;;2.00;;
29422;SDS011;16399;51.686;8.684;2023-04-19T09:47:26;5.75;;;2.50;;
29422;SDS011;16399;51.686;8.684;2023-04-19T09:50:25;4.87;;;2.17;;
29422;SDS011;16399;51.686;8.684;2023-04-19T09:53:28;6.58;;;2.37;;
29422;SDS011;16399;51.686;8.684;2023-04-19T09:56:36;4.97;;;2.33;;
29422;SDS011;16399;51.686;8.684;2023-04-19T09:59:39;6.67;;;2.10;;
29422;SDS011;16399;51.686;8.684;2023-04-19T10:02:41;4.58;;;2.30;;
29422;SDS011;16399;51.686;8.684;2023-04-19T10:05:46;6.28;;;2.42;;
29422;SDS011;16399;51.686;8.684;2023-04-19T10:08:50;5.12;;;2.45;;
29422;SDS011;16399;51.686;8.684;2023-04-19T10:11:55;5.65;;;2.37;;
29422;SDS011;16399;51.686;8.684;2023-04-19T10:15:00;6.20;;;2.20;;
29422;SDS011;16399;51.686;8.684;2023-04-19T10:18:03;5.45;;;2.02;;
29422;SDS011;16399;51.686;8.684;2023-04-19T10:21:07;4.70;;;2.10;;
29422;SDS011;16399;51.686;8.684;2023-04-19T10:24:11;8.67;;;2.30;;
29422;SDS011;16399;51.686;8.684;2023-04-19T10:27:15;8.33;;;2.35;;
29422;SDS011;16399;51.686;8.684;2023-04-19T10:30:18;4.60;;;2.08;;
29422;SDS011;16399;51.686;8.684;2023-04-19T10:33:25;4.72;;;2.25;;
29422;SDS011;16399;51.686;8.684;2023-04-19T10:36:28;5.25;;;2.17;;
29422;SDS011;16399;51.686;8.684;2023-04-19T10:39:37;5.35;;;2.00;;
29422;SDS011;16399;51.686;8.684;2023-04-19T10:46:13;10.63;;;2.10;;
29422;SDS011;16399;51.686;8.684;2023-04-19T10:49:16;4.92;;;2.20;;
29422;SDS011;16399;51.686;8.684;2023-04-19T10:52:26;6.00;;;2.27;;
29422;SDS011;16399;51.686;8.684;2023-04-19T10:55:32;5.85;;;2.02;;
29422;SDS011;16399;51.686;8.684;2023-04-19T11:05:40;5.47;;;2.30;;
29422;SDS011;16399;51.686;8.684;2023-04-19T11:08:40;4.42;;;2.17;;
29422;SDS011;16399;51.686;8.684;2023-04-19T11:11:42;5.15;;;2.85;;
29422;SDS011;16399;51.686;8.684;2023-04-19T11:14:45;6.35;;;2.22;;
29422;SDS011;16399;51.686;8.684;2023-04-19T11:17:49;9.30;;;2.47;;
29422;SDS011;16399;51.686;8.684;2023-04-19T11:20:52;3.72;;;2.20;;
29422;SDS011;16399;51.686;8.684;2023-04-19T11:24:10;6.20;;;2.80;;
29422;SDS011;16399;51.686;8.684;2023-04-19T11:27:15;3.98;;;2.10;;
29422;SDS011;16399;51.686;8.684;2023-04-19T11:30:17;6.87;;;2.35;;
29422;SDS011;16399;51.686;8.684;2023-04-19T11:33:22;4.75;;;2.62;;
29422;SDS011;16399;51.686;8.684;2023-04-19T11:36:25;6.58;;;2.40;;
29422;SDS011;16399;51.686;8.684;2023-04-19T11:39:27;5.28;;;2.60;;
29422;SDS011;16399;51.686;8.684;2023-04-19T11:42:30;5.67;;;2.70;;
29422;SDS011;16399;51.686;8.684;2023-04-19T11:45:37;5.95;;;2.83;;
29422;SDS011;16399;51.686;8.684;2023-04-19T11:48:50;6.50;;;2.67;;
29422;SDS011;16399;51.686;8.684;2023-04-19T11:51:57;5.95;;;2.75;;
29422;SDS011;16399;51.686;8.684;2023-04-19T11:55:16;4.87;;;2.50;;
29422;SDS011;16399;51.686;8.684;2023-04-19T11:58:06;4.50;;;2.33;;
29422;SDS011;16399;51.686;8.684;2023-04-19T12:01:16;4.45;;;2.27;;
29422;SDS011;16399;51.686;8.684;2023-04-19T12:04:15;7.45;;;2.80;;
29422;SDS011;16399;51.686;8.684;2023-04-19T12:07:17;5.67;;;2.22;;
29422;SDS011;16399;51.686;8.684;2023-04-19T12:10:21;5.47;;;2.10;;
29422;SDS011;16399;51.686;8.684;2023-04-19T12:13:24;5.53;;;2.15;;
29422;SDS011;16399;51.686;8.684;2023-04-19T12:16:26;7.20;;;2.40;;
29422;SDS011;16399;51.686;8.684;2023-04-19T12:19:33;7.25;;;2.70;;
29422;SDS011;16399;51.686;8.684;2023-04-19T12:22:36;5.83;;;2.20;;
29422;SDS011;16399;51.686;8.684;2023-04-19T12:25:39;5.28;;;2.10;;
29422;SDS011;16399;51.686;8.684;2023-04-19T12:28:41;4.55;;;1.95;;
29422;SDS011;16399;51.686;8.684;2023-04-19T12:31:43;6.10;;;2.08;;
29422;SDS011;16399;51.686;8.684;2023-04-19T12:34:46;4.35;;;2.22;;
29422;SDS011;16399;51.686;8.684;2023-04-19T12:37:48;5.03;;;2.15;;
29422;SDS011;16399;51.686;8.684;2023-04-19T12:40:51;5.47;;;2.10;;
29422;SDS011;16399;51.686;8.684;2023-04-19T12:43:53;7.62;;;2.10;;
29422;SDS011;16399;51.686;8.684;2023-04-19T12:46:56;6.15;;;2.40;;
29422;SDS011;16399;51.686;8.684;2023-04-19T12:49:58;5.87;;;2.50;;
29422;SDS011;16399;51.686;8.684;2023-04-19T12:53:01;6.70;;;2.22;;
29422;SDS011;16399;51.686;8.684;2023-04-19T12:56:03;5.25;;;1.92;;
29422;SDS011;16399;51.686;8.684;2023-04-19T12:59:07;5.33;;;2.02;;
29422;SDS011;16399;51.686;8.684;2023-04-19T13:02:09;7.00;;;2.47;;
29422;SDS011;16399;51.686;8.684;2023-04-19T13:05:11;7.55;;;1.95;;
29422;SDS011;16399;51.686;8.684;2023-04-19T13:08:14;7.17;;;2.25;;
29422;SDS011;16399;51.686;8.684;2023-04-19T13:11:17;5.15;;;1.82;;
29422;SDS011;16399;51.686;8.684;2023-04-19T13:14:21;4.60;;;2.10;;
29422;SDS011;16399;51.686;8.684;2023-04-19T13:17:24;4.70;;;2.40;;
29422;SDS011;16399;51.686;8.684;2023-04-19T13:20:26;4.08;;;2.27;;
29422;SDS011;16399;51.686;8.684;2023-04-19T13:23:28;4.50;;;2.20;;
29422;SDS011;16399;51.686;8.684;2023-04-19T13:26:31;6.45;;;2.12;;
29422;SDS011;16399;51.686;8.684;2023-04-19T13:29:35;5.33;;;2.50;;
29422;SDS011;16399;51.686;8.684;2023-04-19T13:32:37;5.08;;;2.02;;
29422;SDS011;16399;51.686;8.684;2023-04-19T13:35:40;5.87;;;1.85;;
29422;SDS011;16399;51.686;8.684;2023-04-19T13:38:44;5.53;;;2.10;;
29422;SDS011;16399;51.686;8.684;2023-04-19T13:41:47;5.35;;;2.10;;
29422;SDS011;16399;51.686;8.684;2023-04-19T13:44:49;7.60;;;2.20;;
29422;SDS011;16399;51.686;8.684;2023-04-19T13:47:52;4.80;;;2.02;;
29422;SDS011;16399;51.686;8.684;2023-04-19T13:50:54;8.08;;;2.12;;
29422;SDS011;16399;51.686;8.684;2023-04-19T13:53:57;3.55;;;1.60;;
29422;SDS011;16399;51.686;8.684;2023-04-19T13:56:59;4.00;;;1.72;;
29422;SDS011;16399;51.686;8.684;2023-04-19T14:00:02;4.60;;;1.77;;
29422;SDS011;16399;51.686;8.684;2023-04-19T14:03:05;3.90;;;1.50;;
29422;SDS011;16399;51.686;8.684;2023-04-19T14:06:07;2.30;;;1.30;;
29422;SDS011;16399;51.686;8.684;2023-04-19T14:09:10;7.12;;;1.70;;
29422;SDS011;16399;51.686;8.684;2023-04-19T14:12:12;5.75;;;2.12;;
29422;SDS011;16399;51.686;8.684;2023-04-19T14:15:15;5.90;;;1.62;;
29422;SDS011;16399;51.686;8.684;2023-04-19T14:18:17;3.40;;;1.60;;
29422;SDS011;16399;51.686;8.684;2023-04-19T14:21:19;6.08;;;1.80;;
29422;SDS011;16399;51.686;8.684;2023-04-19T14:24:22;3.62;;;1.40;;
29422;SDS011;16399;51.686;8.684;2023-04-19T14:27:24;5.80;;;1.87;;
29422;SDS011;16399;51.686;8.684;2023-04-19T14:30:26;4.72;;;1.75;;
29422;SDS011;16399;51.686;8.684;2023-04-19T14:33:28;6.17;;;1.90;;
29422;SDS011;16399;51.686;8.684;2023-04-19T14:36:31;4.62;;;2.02;;
29422;SDS011;16399;51.686;8.684;2023-04-19T14:39:33;4.17;;;1.60;;
29422;SDS011;16399;51.686;8.684;2023-04-19T14:42:35;6.47;;;1.95;;
29422;SDS011;16399;51.686;8.684;2023-04-19T14:45:38;6.40;;;1.87;;
29422;SDS011;16399;51.686;8.684;2023-04-19T14:48:40;5.55;;;2.02;;
29422;SDS011;16399;51.686;8.684;2023-04-19T14:51:42;5.15;;;1.72;;
29422;SDS011;16399;51.686;8.684;2023-04-19T14:54:45;6.72;;;1.70;;
29422;SDS011;16399;51.686;8.684;2023-04-19T14:57:47;7.95;;;2.15;;
29422;SDS011;16399;51.686;8.684;2023-04-19T15:00:49;5.20;;;2.08;;
29422;SDS011;16399;51.686;8.684;2023-04-19T15:03:53;5.60;;;2.10;;
29422;SDS011;16399;51.686;8.684;2023-04-19T15:06:55;4.35;;;1.82;;
29422;SDS011;16399;51.686;8.684;2023-04-19T15:09:58;8.63;;;3.22;;
29422;SDS011;16399;51.686;8.684;2023-04-19T15:13:00;5.12;;;2.12;;
29422;SDS011;16399;51.686;8.684;2023-04-19T15:16:03;6.80;;;2.22;;
29422;SDS011;16399;51.686;8.684;2023-04-19T15:19:07;6.80;;;2.27;;
29422;SDS011;16399;51.686;8.684;2023-04-19T15:22:09;16.95;;;8.43;;
29422;SDS011;16399;51.686;8.684;2023-04-19T15:25:11;14.68;;;6.12;;
29422;SDS011;16399;51.686;8.684;2023-04-19T15:28:14;7.10;;;2.87;;
29422;SDS011;16399;51.686;8.684;2023-04-19T15:31:16;6.83;;;3.30;;
29422;SDS011;16399;51.686;8.684;2023-04-19T15:34:18;8.48;;;3.20;;
29422;SDS011;16399;51.686;8.684;2023-04-19T15:37:21;7.10;;;2.62;;
29422;SDS011;16399;51.686;8.684;2023-04-19T15:40:23;4.22;;;1.85;;
29422;SDS011;16399;51.686;8.684;2023-04-19T15:43:25;6.03;;;2.33;;
29422;SDS011;16399;51.686;8.684;2023-04-19T15:46:27;3.67;;;1.92;;
29422;SDS011;16399;51.686;8.684;2023-04-19T15:49:30;4.78;;;2.10;;
29422;SDS011;16399;51.686;8.684;2023-04-19T15:52:32;7.08;;;3.45;;
29422;SDS011;16399;51.686;8.684;2023-04-19T15:55:35;5.20;;;2.47;;
29422;SDS011;16399;51.686;8.684;2023-04-19T15:58:37;5.25;;;2.17;;
29422;SDS011;16399;51.686;8.684;2023-04-19T16:01:39;5.05;;;2.15;;
29422;SDS011;16399;51.686;8.684;2023-04-19T16:04:44;8.68;;;2.20;;
29422;SDS011;16399;51.686;8.684;2023-04-19T16:07:59;11.45;;;2.60;;
29422;SDS011;16399;51.686;8.684;2023-04-19T16:11:02;6.97;;;2.40;;
29422;SDS011;16399;51.686;8.684;2023-04-19T16:14:05;4.60;;;2.40;;
29422;SDS011;16399;51.686;8.684;2023-04-19T16:17:07;5.17;;;2.45;;
29422;SDS011;16399;51.686;8.684;2023-04-19T16:20:10;3.98;;;2.30;;
29422;SDS011;16399;51.686;8.684;2023-04-19T16:23:12;8.38;;;2.60;;
29422;SDS011;16399;51.686;8.684;2023-04-19T16:26:15;9.90;;;2.40;;
29422;SDS011;16399;51.686;8.684;2023-04-19T16:29:17;5.37;;;2.65;;
29422;SDS011;16399;51.686;8.684;2023-04-19T16:32:19;5.50;;;2.00;;
29422;SDS011;16399;51.686;8.684;2023-04-19T16:35:22;9.10;;;2.87;;
29422;SDS011;16399;51.686;8.684;2023-04-19T16:38:26;6.08;;;2.30;;
29422;SDS011;16399;51.686;8.684;2023-04-19T16:41:28;7.40;;;2.95;;
29422;SDS011;16399;51.686;8.684;2023-04-19T16:44:30;6.17;;;2.52;;
29422;SDS011;16399;51.686;8.684;2023-04-19T16:47:33;8.58;;;3.15;;
29422;SDS011;16399;51.686;8.684;2023-04-19T16:50:36;6.53;;;2.55;;
29422;SDS011;16399;51.686;8.684;2023-04-19T16:53:38;6.72;;;2.47;;
29422;SDS011;16399;51.686;8.684;2023-04-19T16:56:41;6.97;;;2.80;;
29422;SDS011;16399;51.686;8.684;2023-04-19T16:59:44;9.93;;;3.00;;
29422;SDS011;16399;51.686;8.684;2023-04-19T17:02:46;7.78;;;2.77;;
29422;SDS011;16399;51.686;8.684;2023-04-19T17:05:48;10.38;;;3.40;;
29422;SDS011;16399;51.686;8.684;2023-04-19T17:08:51;7.10;;;3.12;;
29422;SDS011;16399;51.686;8.684;2023-04-19T17:11:53;6.25;;;3.05;;
29422;SDS011;16399;51.686;8.684;2023-04-19T17:14:57;6.30;;;2.75;;
29422;SDS011;16399;51.686;8.684;2023-04-19T17:17:59;7.35;;;3.05;;
29422;SDS011;16399;51.686;8.684;2023-04-19T17:21:01;7.60;;;3.15;;
29422;SDS011;16399;51.686;8.684;2023-04-19T17:24:04;8.53;;;2.40;;
29422;SDS011;16399;51.686;8.684;2023-04-19T17:27:06;5.42;;;2.40;;
29422;SDS011;16399;51.686;8.684;2023-04-19T17:30:09;11.20;;;2.98;;
29422;SDS011;16399;51.686;8.684;2023-04-19T17:33:11;7.53;;;2.35;;
29422;SDS011;16399;51.686;8.684;2023-04-19T17:36:13;8.93;;;3.10;;
29422;SDS011;16399;51.686;8.684;2023-04-19T17:39:16;8.90;;;3.22;;
29422;SDS011;16399;51.686;8.684;2023-04-19T17:42:18;9.58;;;2.85;;
29422;SDS011;16399;51.686;8.684;2023-04-19T17:45:21;19.35;;;5.87;;
29422;SDS011;16399;51.686;8.684;2023-04-19T17:48:24;43.98;;;11.40;;
29422;SDS011;16399;51.686;8.684;2023-04-19T17:51:26;27.45;;;8.00;;
29422;SDS011;16399;51.686;8.684;2023-04-19T17:54:30;25.92;;;8.33;;
29422;SDS011;16399;51.686;8.684;2023-04-19T17:57:32;14.83;;;4.95;;
29422;SDS011;16399;51.686;8.684;2023-04-19T18:00:35;8.65;;;3.30;;
29422;SDS011;16399;51.686;8.684;2023-04-19T18:03:37;11.33;;;4.75;;
29422;SDS011;16399;51.686;8.684;2023-04-19T18:06:40;6.05;;;2.67;;
29422;SDS011;16399;51.686;8.684;2023-04-19T18:09:42;13.03;;;5.58;;
29422;SDS011;16399;51.686;8.684;2023-04-19T18:12:44;12.82;;;3.98;;
29422;SDS011;16399;51.686;8.684;2023-04-19T18:15:47;6.30;;;3.00;;
29422;SDS011;16399;51.686;8.684;2023-04-19T18:18:49;9.95;;;3.47;;
29422;SDS011;16399;51.686;8.684;2023-04-19T18:21:51;9.30;;;3.70;;
29422;SDS011;16399;51.686;8.684;2023-04-19T18:24:54;6.80;;;2.83;;
29422;SDS011;16399;51.686;8.684;2023-04-19T18:27:56;5.40;;;2.27;;
29422;SDS011;16399;51.686;8.684;2023-04-19T18:30:59;5.50;;;2.20;;